sensor_id;sensor_type;location;lat;lon;timestamp;P1;durP1;ratioP1;P2;durP2;ratioP2
77191;SDS011;66172;48.526;8.078;2023-08-24T00:02:06;8.23;;;4.50;;
77191;SDS011;66172;48.526;8.078;2023-08-24T00:04:32;7.60;;;4.25;;
77191;SDS011;66172;48.526;8.078;2023-08-24T00:06:59;9.65;;;4.00;;
77191;SDS011;66172;48.526;8.078;2023-08-24T00:09:26;7.43;;;4.00;;
77191;SDS011;66172;48.526;8.078;2023-08-24T00:11:52;9.30;;;4.67;;
77191;SDS011;66172;48.526;8.078;2023-08-24T00:14:18;6.75;;;4.05;;
77191;SDS011;66172;48.526;8.078;2023-08-24T00:16:44;10.02;;;4.28;;
77191;SDS011;66172;48.526;8.078;2023-08-24T00:19:10;7.50;;;4.43;;
77191;SDS011;66172;48.526;8.078;2023-08-24T00:21:36;7.97;;;4.13;;
77191;SDS011;66172;48.526;8.078;2023-08-24T00:24:02;8.55;;;4.30;;
77191;SDS011;66172;48.526;8.078;2023-08-24T00:26:29;9.07;;;4.10;;
77191;SDS011;66172;48.526;8.078;2023-08-24T00:28:54;8.48;;;4.60;;
77191;SDS011;66172;48.526;8.078;2023-08-24T00:31:20;7.45;;;4.20;;
77191;SDS011;66172;48.526;8.078;2023-08-24T00:33:46;9.70;;;4.17;;
77191;SDS011;66172;48.526;8.078;2023-08-24T00:36:12;9.98;;;4.45;;
77191;SDS011;66172;48.526;8.078;2023-08-24T00:38:38;7.38;;;4.45;;
77191;SDS011;66172;48.526;8.078;2023-08-24T00:41:04;8.70;;;4.60;;
77191;SDS011;66172;48.526;8.078;2023-08-24T00:43:30;7.55;;;4.38;;
77191;SDS011;66172;48.526;8.078;2023-08-24T00:45:56;8.30;;;4.47;;
77191;SDS011;66172;48.526;8.078;2023-08-24T00:48:25;9.57;;;4.30;;
77191;SDS011;66172;48.526;8.078;2023-08-24T00:50:59;7.97;;;4.63;;
77191;SDS011;66172;48.526;8.078;2023-08-24T00:53:26;9.40;;;4.50;;
77191;SDS011;66172;48.526;8.078;2023-08-24T00:55:54;8.43;;;4.45;;
77191;SDS011;66172;48.526;8.078;2023-08-24T00:58:20;7.28;;;4.40;;
77191;SDS011;66172;48.526;8.078;2023-08-24T01:00:48;8.48;;;4.53;;
77191;SDS011;66172;48.526;8.078;2023-08-24T01:03:16;9.00;;;4.13;;
77191;SDS011;66172;48.526;8.078;2023-08-24T01:05:42;10.07;;;4.30;;
77191;SDS011;66172;48.526;8.078;2023-08-24T01:08:10;10.57;;;4.57;;
77191;SDS011;66172;48.526;8.078;2023-08-24T01:10:39;9.23;;;4.45;;
77191;SDS011;66172;48.526;8.078;2023-08-24T01:13:15;9.25;;;4.53;;
77191;SDS011;66172;48.526;8.078;2023-08-24T01:16:04;9.40;;;4.60;;
77191;SDS011;66172;48.526;8.078;2023-08-24T01:18:34;9.07;;;4.18;;
77191;SDS011;66172;48.526;8.078;2023-08-24T01:21:01;7.55;;;4.38;;
77191;SDS011;66172;48.526;8.078;2023-08-24T01:26:05;11.13;;;4.32;;
77191;SDS011;66172;48.526;8.078;2023-08-24T01:28:32;8.60;;;4.30;;
77191;SDS011;66172;48.526;8.078;2023-08-24T01:30:58;7.93;;;4.40;;
77191;SDS011;66172;48.526;8.078;2023-08-24T01:33:24;8.07;;;4.70;;
77191;SDS011;66172;48.526;8.078;2023-08-24T01:35:50;8.43;;;4.38;;
77191;SDS011;66172;48.526;8.078;2023-08-24T01:38:16;9.40;;;4.20;;
77191;SDS011;66172;48.526;8.078;2023-08-24T01:40:45;7.73;;;4.70;;
77191;SDS011;66172;48.526;8.078;2023-08-24T01:43:17;7.97;;;4.43;;
77191;SDS011;66172;48.526;8.078;2023-08-24T01:45:46;8.45;;;4.50;;
77191;SDS011;66172;48.526;8.078;2023-08-24T01:48:13;8.60;;;4.78;;
77191;SDS011;66172;48.526;8.078;2023-08-24T01:50:39;8.25;;;4.60;;
77191;SDS011;66172;48.526;8.078;2023-08-24T01:53:07;9.70;;;5.00;;
77191;SDS011;66172;48.526;8.078;2023-08-24T01:55:33;9.77;;;4.60;;
77191;SDS011;66172;48.526;8.078;2023-08-24T01:57:59;8.98;;;4.70;;
77191;SDS011;66172;48.526;8.078;2023-08-24T02:00:25;8.50;;;4.40;;
77191;SDS011;66172;48.526;8.078;2023-08-24T02:02:52;8.80;;;4.78;;
77191;SDS011;66172;48.526;8.078;2023-08-24T02:05:18;7.67;;;4.40;;
77191;SDS011;66172;48.526;8.078;2023-08-24T02:07:44;8.32;;;5.00;;
77191;SDS011;66172;48.526;8.078;2023-08-24T02:10:10;9.27;;;4.25;;
77191;SDS011;66172;48.526;8.078;2023-08-24T02:12:35;7.23;;;4.27;;
77191;SDS011;66172;48.526;8.078;2023-08-24T02:15:01;9.85;;;4.30;;
77191;SDS011;66172;48.526;8.078;2023-08-24T02:17:28;8.40;;;4.65;;
77191;SDS011;66172;48.526;8.078;2023-08-24T02:19:54;9.65;;;4.60;;
77191;SDS011;66172;48.526;8.078;2023-08-24T02:22:20;8.03;;;4.17;;
77191;SDS011;66172;48.526;8.078;2023-08-24T02:24:46;10.02;;;4.78;;
77191;SDS011;66172;48.526;8.078;2023-08-24T02:27:12;8.35;;;4.85;;
77191;SDS011;66172;48.526;8.078;2023-08-24T02:29:38;8.77;;;4.80;;
77191;SDS011;66172;48.526;8.078;2023-08-24T02:32:04;8.60;;;4.90;;
77191;SDS011;66172;48.526;8.078;2023-08-24T02:34:30;10.07;;;4.70;;
77191;SDS011;66172;48.526;8.078;2023-08-24T02:36:57;11.27;;;4.90;;
77191;SDS011;66172;48.526;8.078;2023-08-24T02:39:23;10.50;;;5.43;;
77191;SDS011;66172;48.526;8.078;2023-08-24T02:41:49;11.20;;;5.07;;
77191;SDS011;66172;48.526;8.078;2023-08-24T02:44:15;8.53;;;4.87;;
77191;SDS011;66172;48.526;8.078;2023-08-24T02:46:43;10.07;;;5.10;;
77191;SDS011;66172;48.526;8.078;2023-08-24T02:49:10;8.48;;;5.97;;
77191;SDS011;66172;48.526;8.078;2023-08-24T02:51:36;10.43;;;6.07;;
77191;SDS011;66172;48.526;8.078;2023-08-24T02:54:01;10.90;;;5.85;;
77191;SDS011;66172;48.526;8.078;2023-08-24T02:56:27;11.13;;;6.00;;
77191;SDS011;66172;48.526;8.078;2023-08-24T02:58:53;11.80;;;6.38;;
77191;SDS011;66172;48.526;8.078;2023-08-24T03:01:19;12.07;;;6.57;;
77191;SDS011;66172;48.526;8.078;2023-08-24T03:03:45;9.23;;;6.07;;
77191;SDS011;66172;48.526;8.078;2023-08-24T03:06:11;9.40;;;5.90;;
77191;SDS011;66172;48.526;8.078;2023-08-24T03:08:37;9.93;;;6.33;;
77191;SDS011;66172;48.526;8.078;2023-08-24T03:11:03;9.25;;;6.15;;
77191;SDS011;66172;48.526;8.078;2023-08-24T03:13:29;9.05;;;6.43;;
77191;SDS011;66172;48.526;8.078;2023-08-24T03:15:56;14.27;;;6.20;;
77191;SDS011;66172;48.526;8.078;2023-08-24T03:18:22;11.32;;;6.10;;
77191;SDS011;66172;48.526;8.078;2023-08-24T03:20:48;9.20;;;5.93;;
77191;SDS011;66172;48.526;8.078;2023-08-24T03:23:17;10.77;;;5.47;;
77191;SDS011;66172;48.526;8.078;2023-08-24T03:25:43;7.97;;;5.57;;
77191;SDS011;66172;48.526;8.078;2023-08-24T03:28:09;8.32;;;5.50;;
77191;SDS011;66172;48.526;8.078;2023-08-24T03:30:36;9.27;;;5.50;;
77191;SDS011;66172;48.526;8.078;2023-08-24T03:33:03;9.37;;;5.20;;
77191;SDS011;66172;48.526;8.078;2023-08-24T03:35:30;8.40;;;5.53;;
77191;SDS011;66172;48.526;8.078;2023-08-24T03:37:57;9.85;;;5.72;;
77191;SDS011;66172;48.526;8.078;2023-08-24T03:40:23;8.52;;;5.20;;
77191;SDS011;66172;48.526;8.078;2023-08-24T03:42:49;11.10;;;5.00;;
77191;SDS011;66172;48.526;8.078;2023-08-24T03:45:15;9.40;;;5.00;;
77191;SDS011;66172;48.526;8.078;2023-08-24T03:47:41;9.35;;;5.68;;
77191;SDS011;66172;48.526;8.078;2023-08-24T03:50:07;9.82;;;5.55;;
77191;SDS011;66172;48.526;8.078;2023-08-24T03:52:33;9.10;;;5.40;;
77191;SDS011;66172;48.526;8.078;2023-08-24T03:54:59;13.18;;;5.60;;
77191;SDS011;66172;48.526;8.078;2023-08-24T03:57:25;11.85;;;5.03;;
77191;SDS011;66172;48.526;8.078;2023-08-24T03:59:51;7.60;;;5.20;;
77191;SDS011;66172;48.526;8.078;2023-08-24T04:02:17;12.63;;;5.13;;
77191;SDS011;66172;48.526;8.078;2023-08-24T04:04:43;9.10;;;5.05;;
77191;SDS011;66172;48.526;8.078;2023-08-24T04:07:09;7.50;;;4.82;;
77191;SDS011;66172;48.526;8.078;2023-08-24T04:09:35;8.53;;;5.47;;
77191;SDS011;66172;48.526;8.078;2023-08-24T04:12:00;9.05;;;5.05;;
77191;SDS011;66172;48.526;8.078;2023-08-24T04:14:26;9.30;;;5.70;;
77191;SDS011;66172;48.526;8.078;2023-08-24T04:16:52;9.07;;;5.35;;
77191;SDS011;66172;48.526;8.078;2023-08-24T04:19:18;8.37;;;5.07;;
77191;SDS011;66172;48.526;8.078;2023-08-24T04:21:44;7.43;;;5.43;;
77191;SDS011;66172;48.526;8.078;2023-08-24T04:24:10;10.30;;;5.68;;
77191;SDS011;66172;48.526;8.078;2023-08-24T04:26:36;7.67;;;5.00;;
77191;SDS011;66172;48.526;8.078;2023-08-24T04:29:02;9.80;;;5.20;;
77191;SDS011;66172;48.526;8.078;2023-08-24T04:31:28;9.82;;;4.97;;
77191;SDS011;66172;48.526;8.078;2023-08-24T04:33:53;8.60;;;4.68;;
77191;SDS011;66172;48.526;8.078;2023-08-24T04:36:19;9.10;;;5.20;;
77191;SDS011;66172;48.526;8.078;2023-08-24T04:38:45;11.77;;;5.47;;
77191;SDS011;66172;48.526;8.078;2023-08-24T04:41:11;9.25;;;5.18;;
77191;SDS011;66172;48.526;8.078;2023-08-24T04:43:38;9.77;;;5.65;;
77191;SDS011;66172;48.526;8.078;2023-08-24T04:46:03;8.97;;;5.20;;
77191;SDS011;66172;48.526;8.078;2023-08-24T04:48:30;9.82;;;5.88;;
77191;SDS011;66172;48.526;8.078;2023-08-24T04:51:00;8.32;;;5.15;;
77191;SDS011;66172;48.526;8.078;2023-08-24T04:53:27;9.82;;;5.10;;
77191;SDS011;66172;48.526;8.078;2023-08-24T04:55:53;8.23;;;5.30;;
77191;SDS011;66172;48.526;8.078;2023-08-24T04:58:19;8.67;;;5.57;;
77191;SDS011;66172;48.526;8.078;2023-08-24T05:00:45;10.57;;;5.47;;
77191;SDS011;66172;48.526;8.078;2023-08-24T05:03:11;9.88;;;6.07;;
77191;SDS011;66172;48.526;8.078;2023-08-24T05:05:37;9.27;;;5.53;;
77191;SDS011;66172;48.526;8.078;2023-08-24T05:08:04;13.43;;;5.47;;
77191;SDS011;66172;48.526;8.078;2023-08-24T05:10:36;9.45;;;5.18;;
77191;SDS011;66172;48.526;8.078;2023-08-24T05:13:03;9.43;;;5.63;;
77191;SDS011;66172;48.526;8.078;2023-08-24T05:15:30;8.60;;;5.40;;
77191;SDS011;66172;48.526;8.078;2023-08-24T05:17:55;9.27;;;5.20;;
77191;SDS011;66172;48.526;8.078;2023-08-24T05:20:24;9.93;;;5.57;;
77191;SDS011;66172;48.526;8.078;2023-08-24T05:22:51;8.18;;;5.75;;
77191;SDS011;66172;48.526;8.078;2023-08-24T05:25:17;11.02;;;5.82;;
77191;SDS011;66172;48.526;8.078;2023-08-24T05:27:43;8.90;;;5.70;;
77191;SDS011;66172;48.526;8.078;2023-08-24T05:30:09;9.15;;;5.43;;
77191;SDS011;66172;48.526;8.078;2023-08-24T05:32:36;9.40;;;6.10;;
77191;SDS011;66172;48.526;8.078;2023-08-24T05:35:04;12.50;;;5.40;;
77191;SDS011;66172;48.526;8.078;2023-08-24T05:37:31;12.00;;;5.28;;
77191;SDS011;66172;48.526;8.078;2023-08-24T05:39:57;10.05;;;5.28;;
77191;SDS011;66172;48.526;8.078;2023-08-24T05:42:23;8.80;;;5.80;;
77191;SDS011;66172;48.526;8.078;2023-08-24T05:44:49;10.07;;;5.63;;
77191;SDS011;66172;48.526;8.078;2023-08-24T05:47:15;11.32;;;5.25;;
77191;SDS011;66172;48.526;8.078;2023-08-24T05:49:41;8.10;;;5.10;;
77191;SDS011;66172;48.526;8.078;2023-08-24T05:52:07;10.40;;;5.50;;
77191;SDS011;66172;48.526;8.078;2023-08-24T05:54:33;8.10;;;5.50;;
77191;SDS011;66172;48.526;8.078;2023-08-24T05:56:59;11.43;;;5.50;;
77191;SDS011;66172;48.526;8.078;2023-08-24T05:59:26;11.70;;;5.95;;
77191;SDS011;66172;48.526;8.078;2023-08-24T06:01:53;11.02;;;6.22;;
77191;SDS011;66172;48.526;8.078;2023-08-24T06:04:19;10.73;;;6.40;;
77191;SDS011;66172;48.526;8.078;2023-08-24T06:06:44;10.23;;;6.43;;
77191;SDS011;66172;48.526;8.078;2023-08-24T06:09:10;14.38;;;7.07;;
77191;SDS011;66172;48.526;8.078;2023-08-24T06:11:36;11.30;;;7.03;;
77191;SDS011;66172;48.526;8.078;2023-08-24T06:14:02;12.15;;;7.65;;
77191;SDS011;66172;48.526;8.078;2023-08-24T06:16:28;14.07;;;7.55;;
77191;SDS011;66172;48.526;8.078;2023-08-24T06:18:55;12.20;;;7.45;;
77191;SDS011;66172;48.526;8.078;2023-08-24T06:21:21;16.93;;;8.27;;
77191;SDS011;66172;48.526;8.078;2023-08-24T06:23:47;12.00;;;7.50;;
77191;SDS011;66172;48.526;8.078;2023-08-24T06:26:13;13.77;;;8.27;;
77191;SDS011;66172;48.526;8.078;2023-08-24T06:28:39;12.27;;;7.80;;
77191;SDS011;66172;48.526;8.078;2023-08-24T06:31:05;11.63;;;7.40;;
77191;SDS011;66172;48.526;8.078;2023-08-24T06:33:33;12.25;;;7.72;;
77191;SDS011;66172;48.526;8.078;2023-08-24T06:36:01;10.93;;;7.35;;
77191;SDS011;66172;48.526;8.078;2023-08-24T06:38:27;12.60;;;6.72;;
77191;SDS011;66172;48.526;8.078;2023-08-24T06:40:54;9.75;;;6.43;;
77191;SDS011;66172;48.526;8.078;2023-08-24T06:43:20;10.70;;;6.60;;
77191;SDS011;66172;48.526;8.078;2023-08-24T06:45:46;12.18;;;6.05;;
77191;SDS011;66172;48.526;8.078;2023-08-24T06:48:12;10.00;;;5.75;;
77191;SDS011;66172;48.526;8.078;2023-08-24T06:50:38;9.98;;;6.00;;
77191;SDS011;66172;48.526;8.078;2023-08-24T06:53:04;10.57;;;5.67;;
77191;SDS011;66172;48.526;8.078;2023-08-24T06:55:30;9.27;;;6.03;;
77191;SDS011;66172;48.526;8.078;2023-08-24T06:57:56;10.90;;;6.03;;
77191;SDS011;66172;48.526;8.078;2023-08-24T07:00:22;10.40;;;6.82;;
77191;SDS011;66172;48.526;8.078;2023-08-24T07:02:49;11.90;;;6.33;;
77191;SDS011;66172;48.526;8.078;2023-08-24T07:05:15;10.65;;;6.20;;
77191;SDS011;66172;48.526;8.078;2023-08-24T07:07:47;11.07;;;6.68;;
77191;SDS011;66172;48.526;8.078;2023-08-24T07:10:15;9.60;;;6.45;;
77191;SDS011;66172;48.526;8.078;2023-08-24T07:12:41;10.70;;;5.53;;
77191;SDS011;66172;48.526;8.078;2023-08-24T07:15:10;11.30;;;5.87;;
77191;SDS011;66172;48.526;8.078;2023-08-24T07:17:37;9.38;;;6.07;;
77191;SDS011;66172;48.526;8.078;2023-08-24T07:20:03;10.82;;;5.10;;
77191;SDS011;66172;48.526;8.078;2023-08-24T07:22:37;8.80;;;5.30;;
77191;SDS011;66172;48.526;8.078;2023-08-24T07:25:04;9.07;;;5.43;;
77191;SDS011;66172;48.526;8.078;2023-08-24T07:27:34;9.93;;;5.60;;
77191;SDS011;66172;48.526;8.078;2023-08-24T07:30:00;9.15;;;5.45;;
77191;SDS011;66172;48.526;8.078;2023-08-24T07:32:31;10.43;;;5.43;;
77191;SDS011;66172;48.526;8.078;2023-08-24T07:34:57;9.45;;;5.20;;
77191;SDS011;66172;48.526;8.078;2023-08-24T07:37:27;7.50;;;5.20;;
77191;SDS011;66172;48.526;8.078;2023-08-24T07:39:53;8.43;;;5.03;;
77191;SDS011;66172;48.526;8.078;2023-08-24T07:42:20;9.48;;;5.65;;
77191;SDS011;66172;48.526;8.078;2023-08-24T07:44:47;7.60;;;4.90;;
77191;SDS011;66172;48.526;8.078;2023-08-24T07:47:13;10.07;;;5.17;;
77191;SDS011;66172;48.526;8.078;2023-08-24T07:49:39;8.98;;;5.38;;
77191;SDS011;66172;48.526;8.078;2023-08-24T07:52:12;10.45;;;5.47;;
77191;SDS011;66172;48.526;8.078;2023-08-24T07:54:38;7.68;;;5.28;;
77191;SDS011;66172;48.526;8.078;2023-08-24T07:57:05;8.90;;;5.53;;
77191;SDS011;66172;48.526;8.078;2023-08-24T07:59:31;10.03;;;5.23;;
77191;SDS011;66172;48.526;8.078;2023-08-24T08:01:57;9.23;;;5.28;;
77191;SDS011;66172;48.526;8.078;2023-08-24T08:04:23;9.60;;;5.72;;
77191;SDS011;66172;48.526;8.078;2023-08-24T08:06:49;8.77;;;5.43;;
77191;SDS011;66172;48.526;8.078;2023-08-24T08:09:14;9.07;;;5.68;;
77191;SDS011;66172;48.526;8.078;2023-08-24T08:11:42;8.50;;;5.30;;
77191;SDS011;66172;48.526;8.078;2023-08-24T08:14:08;10.38;;;5.75;;
77191;SDS011;66172;48.526;8.078;2023-08-24T08:16:35;7.38;;;5.57;;
77191;SDS011;66172;48.526;8.078;2023-08-24T08:19:02;9.73;;;5.50;;
77191;SDS011;66172;48.526;8.078;2023-08-24T08:21:27;9.98;;;5.90;;
77191;SDS011;66172;48.526;8.078;2023-08-24T08:23:54;9.18;;;5.80;;
77191;SDS011;66172;48.526;8.078;2023-08-24T08:26:20;10.77;;;5.40;;
77191;SDS011;66172;48.526;8.078;2023-08-24T08:28:46;11.47;;;5.60;;
77191;SDS011;66172;48.526;8.078;2023-08-24T08:31:12;10.55;;;5.60;;
77191;SDS011;66172;48.526;8.078;2023-08-24T08:33:38;8.20;;;5.47;;
77191;SDS011;66172;48.526;8.078;2023-08-24T08:36:04;10.68;;;5.82;;
77191;SDS011;66172;48.526;8.078;2023-08-24T08:38:30;9.37;;;5.67;;
77191;SDS011;66172;48.526;8.078;2023-08-24T08:40:56;8.48;;;5.85;;
77191;SDS011;66172;48.526;8.078;2023-08-24T08:43:28;12.25;;;5.80;;
77191;SDS011;66172;48.526;8.078;2023-08-24T08:45:56;16.23;;;6.40;;
77191;SDS011;66172;48.526;8.078;2023-08-24T08:48:22;10.75;;;5.60;;
77191;SDS011;66172;48.526;8.078;2023-08-24T08:50:50;9.80;;;5.80;;
77191;SDS011;66172;48.526;8.078;2023-08-24T08:53:20;12.23;;;5.75;;
77191;SDS011;66172;48.526;8.078;2023-08-24T08:55:46;11.23;;;6.10;;
77191;SDS011;66172;48.526;8.078;2023-08-24T08:58:12;7.97;;;5.18;;
77191;SDS011;66172;48.526;8.078;2023-08-24T09:00:39;11.45;;;5.70;;
77191;SDS011;66172;48.526;8.078;2023-08-24T09:03:06;9.00;;;5.33;;
77191;SDS011;66172;48.526;8.078;2023-08-24T09:05:34;8.07;;;5.50;;
77191;SDS011;66172;48.526;8.078;2023-08-24T09:08:03;7.88;;;5.22;;
77191;SDS011;66172;48.526;8.078;2023-08-24T09:10:30;8.23;;;5.65;;
77191;SDS011;66172;48.526;8.078;2023-08-24T09:12:56;9.50;;;5.63;;
77191;SDS011;66172;48.526;8.078;2023-08-24T09:15:26;8.53;;;5.50;;
77191;SDS011;66172;48.526;8.078;2023-08-24T09:17:53;11.30;;;5.57;;
77191;SDS011;66172;48.526;8.078;2023-08-24T09:20:20;8.73;;;4.97;;
77191;SDS011;66172;48.526;8.078;2023-08-24T09:22:46;8.88;;;5.70;;
77191;SDS011;66172;48.526;8.078;2023-08-24T09:25:12;11.03;;;5.40;;
77191;SDS011;66172;48.526;8.078;2023-08-24T09:27:38;10.93;;;5.45;;
77191;SDS011;66172;48.526;8.078;2023-08-24T09:30:04;8.13;;;5.47;;
77191;SDS011;66172;48.526;8.078;2023-08-24T09:32:33;11.13;;;6.03;;
77191;SDS011;66172;48.526;8.078;2023-08-24T09:35:03;9.87;;;5.20;;
77191;SDS011;66172;48.526;8.078;2023-08-24T09:37:38;8.38;;;5.57;;
77191;SDS011;66172;48.526;8.078;2023-08-24T09:40:05;10.52;;;5.60;;
77191;SDS011;66172;48.526;8.078;2023-08-24T09:42:41;11.40;;;5.90;;
77191;SDS011;66172;48.526;8.078;2023-08-24T09:45:13;9.53;;;5.27;;
77191;SDS011;66172;48.526;8.078;2023-08-24T09:47:44;9.18;;;5.50;;
77191;SDS011;66172;48.526;8.078;2023-08-24T09:50:11;7.88;;;5.30;;
77191;SDS011;66172;48.526;8.078;2023-08-24T09:52:37;8.95;;;5.65;;
77191;SDS011;66172;48.526;8.078;2023-08-24T09:55:07;10.05;;;5.93;;
77191;SDS011;66172;48.526;8.078;2023-08-24T09:57:38;11.17;;;6.00;;
77191;SDS011;66172;48.526;8.078;2023-08-24T10:00:08;10.05;;;5.93;;
77191;SDS011;66172;48.526;8.078;2023-08-24T10:02:41;9.38;;;5.90;;
77191;SDS011;66172;48.526;8.078;2023-08-24T10:05:17;9.63;;;5.80;;
77191;SDS011;66172;48.526;8.078;2023-08-24T10:07:50;9.10;;;6.07;;
77191;SDS011;66172;48.526;8.078;2023-08-24T10:10:20;9.40;;;6.10;;
77191;SDS011;66172;48.526;8.078;2023-08-24T10:12:50;10.13;;;6.03;;
77191;SDS011;66172;48.526;8.078;2023-08-24T10:15:19;12.02;;;6.10;;
77191;SDS011;66172;48.526;8.078;2023-08-24T10:17:49;10.55;;;6.15;;
77191;SDS011;66172;48.526;8.078;2023-08-24T10:20:17;12.30;;;5.80;;
77191;SDS011;66172;48.526;8.078;2023-08-24T10:22:45;9.97;;;5.80;;
77191;SDS011;66172;48.526;8.078;2023-08-24T10:25:13;10.68;;;6.18;;
77191;SDS011;66172;48.526;8.078;2023-08-24T10:27:39;9.55;;;6.05;;
77191;SDS011;66172;48.526;8.078;2023-08-24T10:30:10;8.85;;;5.82;;
77191;SDS011;66172;48.526;8.078;2023-08-24T10:32:38;9.82;;;5.40;;
77191;SDS011;66172;48.526;8.078;2023-08-24T10:35:06;10.07;;;6.03;;
77191;SDS011;66172;48.526;8.078;2023-08-24T10:37:32;9.02;;;6.15;;
77191;SDS011;66172;48.526;8.078;2023-08-24T10:39:59;9.80;;;6.50;;
77191;SDS011;66172;48.526;8.078;2023-08-24T10:42:26;9.90;;;6.57;;
77191;SDS011;66172;48.526;8.078;2023-08-24T10:44:52;9.73;;;6.60;;
77191;SDS011;66172;48.526;8.078;2023-08-24T10:47:22;9.87;;;5.93;;
77191;SDS011;66172;48.526;8.078;2023-08-24T10:54:48;9.25;;;6.05;;
77191;SDS011;66172;48.526;8.078;2023-08-24T10:57:18;8.90;;;6.30;;
77191;SDS011;66172;48.526;8.078;2023-08-24T10:59:45;9.20;;;6.37;;
77191;SDS011;66172;48.526;8.078;2023-08-24T11:02:18;8.73;;;6.10;;
77191;SDS011;66172;48.526;8.078;2023-08-24T11:05:03;10.25;;;6.47;;
77191;SDS011;66172;48.526;8.078;2023-08-24T11:07:49;10.95;;;6.90;;
77191;SDS011;66172;48.526;8.078;2023-08-24T11:10:16;8.85;;;6.50;;
77191;SDS011;66172;48.526;8.078;2023-08-24T11:13:25;9.80;;;6.37;;
77191;SDS011;66172;48.526;8.078;2023-08-24T11:15:33;11.35;;;6.38;;
77191;SDS011;66172;48.526;8.078;2023-08-24T11:18:11;11.23;;;6.90;;
77191;SDS011;66172;48.526;8.078;2023-08-24T11:20:37;12.25;;;6.68;;
77191;SDS011;66172;48.526;8.078;2023-08-24T11:23:04;9.40;;;6.05;;
77191;SDS011;66172;48.526;8.078;2023-08-24T11:25:30;7.57;;;5.97;;
77191;SDS011;66172;48.526;8.078;2023-08-24T11:28:02;9.88;;;6.15;;
77191;SDS011;66172;48.526;8.078;2023-08-24T11:30:29;8.18;;;6.10;;
77191;SDS011;66172;48.526;8.078;2023-08-24T11:32:57;11.23;;;6.30;;
77191;SDS011;66172;48.526;8.078;2023-08-24T11:35:23;10.37;;;6.33;;
77191;SDS011;66172;48.526;8.078;2023-08-24T11:37:55;9.67;;;6.57;;
77191;SDS011;66172;48.526;8.078;2023-08-24T11:40:22;9.35;;;6.38;;
77191;SDS011;66172;48.526;8.078;2023-08-24T11:42:58;11.13;;;6.25;;
77191;SDS011;66172;48.526;8.078;2023-08-24T11:45:24;9.57;;;6.20;;
77191;SDS011;66172;48.526;8.078;2023-08-24T11:47:57;8.10;;;5.70;;
77191;SDS011;66172;48.526;8.078;2023-08-24T11:50:27;10.27;;;6.22;;
77191;SDS011;66172;48.526;8.078;2023-08-24T11:52:54;9.20;;;6.28;;
77191;SDS011;66172;48.526;8.078;2023-08-24T11:55:23;10.63;;;6.40;;
77191;SDS011;66172;48.526;8.078;2023-08-24T11:57:50;9.75;;;5.93;;
77191;SDS011;66172;48.526;8.078;2023-08-24T12:00:19;9.13;;;6.60;;
77191;SDS011;66172;48.526;8.078;2023-08-24T12:02:47;10.35;;;6.30;;
77191;SDS011;66172;48.526;8.078;2023-08-24T12:05:23;9.02;;;6.35;;
77191;SDS011;66172;48.526;8.078;2023-08-24T12:07:53;9.25;;;6.60;;
77191;SDS011;66172;48.526;8.078;2023-08-24T12:10:20;10.73;;;6.30;;
77191;SDS011;66172;48.526;8.078;2023-08-24T12:12:47;11.80;;;6.03;;
77191;SDS011;66172;48.526;8.078;2023-08-24T12:15:17;10.93;;;6.25;;
77191;SDS011;66172;48.526;8.078;2023-08-24T12:17:46;13.23;;;6.40;;
77191;SDS011;66172;48.526;8.078;2023-08-24T12:20:19;9.15;;;6.03;;
77191;SDS011;66172;48.526;8.078;2023-08-24T12:22:54;8.60;;;6.45;;
77191;SDS011;66172;48.526;8.078;2023-08-24T12:25:23;9.47;;;6.27;;
77191;SDS011;66172;48.526;8.078;2023-08-24T12:27:51;9.05;;;6.00;;
77191;SDS011;66172;48.526;8.078;2023-08-24T12:30:18;8.10;;;6.13;;
77191;SDS011;66172;48.526;8.078;2023-08-24T12:32:45;9.18;;;6.63;;
77191;SDS011;66172;48.526;8.078;2023-08-24T12:35:15;11.65;;;6.20;;
77191;SDS011;66172;48.526;8.078;2023-08-24T12:37:41;12.43;;;6.63;;
77191;SDS011;66172;48.526;8.078;2023-08-24T12:40:07;11.50;;;6.30;;
77191;SDS011;66172;48.526;8.078;2023-08-24T12:42:34;12.70;;;6.07;;
77191;SDS011;66172;48.526;8.078;2023-08-24T12:45:00;12.02;;;6.90;;
77191;SDS011;66172;48.526;8.078;2023-08-24T12:47:26;12.73;;;6.20;;
77191;SDS011;66172;48.526;8.078;2023-08-24T12:49:52;11.00;;;6.07;;
77191;SDS011;66172;48.526;8.078;2023-08-24T12:52:20;13.70;;;6.32;;
77191;SDS011;66172;48.526;8.078;2023-08-24T12:54:47;13.50;;;6.10;;
77191;SDS011;66172;48.526;8.078;2023-08-24T12:57:13;12.27;;;6.40;;
77191;SDS011;66172;48.526;8.078;2023-08-24T12:59:39;11.57;;;6.20;;
77191;SDS011;66172;48.526;8.078;2023-08-24T13:02:05;9.25;;;6.45;;
77191;SDS011;66172;48.526;8.078;2023-08-24T13:04:31;9.73;;;6.38;;
77191;SDS011;66172;48.526;8.078;2023-08-24T13:06:58;11.13;;;6.38;;
77191;SDS011;66172;48.526;8.078;2023-08-24T13:09:24;12.97;;;6.50;;
77191;SDS011;66172;48.526;8.078;2023-08-24T13:11:50;9.93;;;6.60;;
77191;SDS011;66172;48.526;8.078;2023-08-24T13:14:16;10.50;;;6.78;;
77191;SDS011;66172;48.526;8.078;2023-08-24T13:16:42;9.73;;;6.67;;
77191;SDS011;66172;48.526;8.078;2023-08-24T13:19:08;9.27;;;6.68;;
77191;SDS011;66172;48.526;8.078;2023-08-24T13:21:33;12.25;;;7.13;;
77191;SDS011;66172;48.526;8.078;2023-08-24T13:23:59;10.33;;;7.00;;
77191;SDS011;66172;48.526;8.078;2023-08-24T13:26:25;10.40;;;6.85;;
77191;SDS011;66172;48.526;8.078;2023-08-24T13:28:51;9.90;;;6.60;;
77191;SDS011;66172;48.526;8.078;2023-08-24T13:31:17;11.20;;;7.07;;
77191;SDS011;66172;48.526;8.078;2023-08-24T13:33:44;12.10;;;6.97;;
77191;SDS011;66172;48.526;8.078;2023-08-24T13:36:11;11.18;;;6.90;;
77191;SDS011;66172;48.526;8.078;2023-08-24T13:38:37;11.00;;;6.85;;
77191;SDS011;66172;48.526;8.078;2023-08-24T13:41:02;12.63;;;7.07;;
77191;SDS011;66172;48.526;8.078;2023-08-24T13:43:29;10.70;;;6.80;;
77191;SDS011;66172;48.526;8.078;2023-08-24T13:45:55;12.70;;;6.30;;
77191;SDS011;66172;48.526;8.078;2023-08-24T13:48:21;11.23;;;7.03;;
77191;SDS011;66172;48.526;8.078;2023-08-24T13:50:50;10.35;;;7.10;;
77191;SDS011;66172;48.526;8.078;2023-08-24T13:53:20;12.00;;;7.70;;
77191;SDS011;66172;48.526;8.078;2023-08-24T13:55:45;13.47;;;7.83;;
77191;SDS011;66172;48.526;8.078;2023-08-24T13:58:11;14.15;;;7.43;;
77191;SDS011;66172;48.526;8.078;2023-08-24T14:00:37;13.27;;;7.85;;
77191;SDS011;66172;48.526;8.078;2023-08-24T14:03:03;13.63;;;7.63;;
77191;SDS011;66172;48.526;8.078;2023-08-24T14:05:29;15.35;;;7.82;;
77191;SDS011;66172;48.526;8.078;2023-08-24T14:07:55;13.02;;;7.50;;
77191;SDS011;66172;48.526;8.078;2023-08-24T14:10:21;12.55;;;7.10;;
77191;SDS011;66172;48.526;8.078;2023-08-24T14:12:47;11.73;;;7.30;;
77191;SDS011;66172;48.526;8.078;2023-08-24T14:15:13;12.65;;;7.50;;
77191;SDS011;66172;48.526;8.078;2023-08-24T14:17:39;11.23;;;7.40;;
77191;SDS011;66172;48.526;8.078;2023-08-24T14:20:05;11.60;;;7.10;;
77191;SDS011;66172;48.526;8.078;2023-08-24T14:22:32;11.07;;;6.73;;
77191;SDS011;66172;48.526;8.078;2023-08-24T14:24:58;10.32;;;6.20;;
77191;SDS011;66172;48.526;8.078;2023-08-24T14:27:23;12.80;;;6.43;;
77191;SDS011;66172;48.526;8.078;2023-08-24T14:29:49;9.65;;;6.10;;
77191;SDS011;66172;48.526;8.078;2023-08-24T14:32:15;12.67;;;6.33;;
77191;SDS011;66172;48.526;8.078;2023-08-24T14:34:41;9.80;;;5.93;;
77191;SDS011;66172;48.526;8.078;2023-08-24T14:37:07;12.05;;;5.78;;
77191;SDS011;66172;48.526;8.078;2023-08-24T14:39:33;10.40;;;5.80;;
77191;SDS011;66172;48.526;8.078;2023-08-24T14:41:59;10.25;;;5.65;;
77191;SDS011;66172;48.526;8.078;2023-08-24T14:44:25;8.15;;;5.07;;
77191;SDS011;66172;48.526;8.078;2023-08-24T14:46:50;12.30;;;5.70;;
77191;SDS011;66172;48.526;8.078;2023-08-24T14:49:17;10.25;;;6.00;;
77191;SDS011;66172;48.526;8.078;2023-08-24T14:51:44;11.20;;;6.00;;